createdAt,value
2022-12-28T00:02:27.941Z,99485.78
2022-12-28T00:07:33.793Z,99483.41
2022-12-28T00:12:41.296Z,99483.22
2022-12-28T00:17:46.152Z,99492.44
2022-12-28T00:22:51.005Z,99499.44
2022-12-28T00:27:58.746Z,99492.03
2022-12-28T00:33:03.957Z,99487.00
2022-12-28T00:38:08.891Z,99470.75
2022-12-28T00:43:16.738Z,99475.75
2022-12-28T00:48:21.648Z,99470.47
2022-12-28T00:53:26.826Z,99452.00
2022-12-28T00:58:35.838Z,99472.00
2022-12-28T01:03:40.950Z,99465.72
2022-12-28T01:08:46.189Z,99455.56
2022-12-28T01:13:55.434Z,99454.31
2022-12-28T01:19:03.671Z,99458.88
2022-12-28T01:24:10.134Z,99450.88
2022-12-28T01:29:17.576Z,99443.09
2022-12-28T01:34:22.409Z,99425.09
2022-12-28T01:39:27.255Z,99430.09
2022-12-28T01:44:50.452Z,99425.53
2022-12-28T01:50:03.838Z,99410.38
2022-12-28T01:55:13.674Z,99410.84
2022-12-28T02:00:22.050Z,99411.56
2022-12-28T02:05:31.912Z,99406.97
2022-12-28T02:10:40.557Z,99395.78
2022-12-28T02:15:52.841Z,99389.06
2022-12-28T02:21:20.396Z,99375.59
2022-12-28T02:26:55.365Z,99363.53
2022-12-28T02:32:14.063Z,99345.84
2022-12-28T02:37:23.699Z,99332.81
2022-12-28T02:42:31.759Z,99334.31
2022-12-28T02:47:52.793Z,99325.06
2022-12-28T02:53:31.283Z,99311.22
2022-12-28T02:59:01.966Z,99300.56
2022-12-28T03:04:20.293Z,99289.13
2022-12-28T03:09:33.575Z,99282.22
2022-12-28T03:14:45.577Z,99261.47
2022-12-28T03:20:09.708Z,99256.22
2022-12-28T03:25:31.182Z,99249.84
2022-12-28T03:30:52.709Z,99235.09
2022-12-28T03:36:11.315Z,99238.38
2022-12-28T03:41:19.124Z,99224.88
2022-12-28T03:46:31.857Z,99213.78
2022-12-28T03:51:39.885Z,99201.31
2022-12-28T03:56:52.184Z,99204.50
2022-12-28T04:02:01.353Z,99188.91
2022-12-28T04:07:11.176Z,99180.38
2022-12-28T04:12:16.166Z,99172.91
2022-12-28T04:17:51.614Z,99165.16
2022-12-28T04:22:59.461Z,99155.78
2022-12-28T04:28:05.355Z,99154.03
2022-12-28T04:33:38.173Z,99142.09
2022-12-28T04:38:48.362Z,99157.16
2022-12-28T04:43:53.428Z,99148.22
2022-12-28T04:48:58.476Z,99150.59
2022-12-28T04:54:06.376Z,99123.38
2022-12-28T04:59:11.651Z,99131.56
2022-12-28T05:04:16.625Z,99121.06
2022-12-28T05:09:24.288Z,99115.56
2022-12-28T05:14:34.986Z,99116.63
2022-12-28T05:19:41.831Z,99119.00
2022-12-28T05:24:49.667Z,99104.94
2022-12-28T05:29:54.609Z,99087.81
2022-12-28T05:34:59.442Z,99081.50
2022-12-28T05:40:08.350Z,99067.53
2022-12-28T05:45:14.127Z,99068.38
2022-12-28T05:50:19.152Z,99083.19
2022-12-28T05:55:26.697Z,99072.91
2022-12-28T06:00:31.630Z,99084.06
2022-12-28T06:05:37.374Z,99083.34
2022-12-28T06:10:45.142Z,99081.91
2022-12-28T06:15:50.310Z,99080.16
2022-12-28T06:20:57.100Z,99066.03
2022-12-28T06:26:06.637Z,99046.84
2022-12-28T06:31:15.063Z,99040.47
2022-12-28T06:36:23.286Z,99045.78
2022-12-28T06:41:34.148Z,99034.13
2022-12-28T06:46:39.971Z,99044.16
2022-12-28T06:51:45.094Z,99042.53
2022-12-28T06:56:52.651Z,99025.47
2022-12-28T07:01:58.325Z,99033.50
2022-12-28T07:07:03.441Z,99029.47
2022-12-28T07:12:11.271Z,99021.34
2022-12-28T07:17:16.316Z,99021.63
2022-12-28T07:22:21.339Z,99012.72
2022-12-28T07:27:29.033Z,99001.56
2022-12-28T07:32:33.977Z,98994.56
2022-12-28T07:37:39.362Z,98980.19
2022-12-28T07:42:46.995Z,98969.88
2022-12-28T07:47:52.066Z,98965.72
2022-12-28T07:53:03.464Z,98951.53
2022-12-28T07:58:11.759Z,98968.19
2022-12-28T08:03:16.815Z,98957.94
2022-12-28T08:08:21.824Z,98957.69
2022-12-28T08:13:29.406Z,98947.09
2022-12-28T08:18:35.284Z,98946.88
2022-12-28T08:23:40.771Z,98965.06
2022-12-28T08:28:50.630Z,98961.69
2022-12-28T08:33:56.148Z,98945.69
2022-12-28T08:39:04.229Z,98934.38
2022-12-28T08:44:13.871Z,98926.44
2022-12-28T08:49:19.328Z,98918.88
2022-12-28T08:54:26.676Z,98914.69
2022-12-28T08:59:34.963Z,98909.50
2022-12-28T09:04:41.981Z,98900.03
2022-12-28T09:09:49.610Z,98889.75
2022-12-28T09:15:00.180Z,98892.66
2022-12-28T09:20:07.305Z,98877.41
2022-12-28T09:25:15.465Z,98869.72
2022-12-28T09:30:27.003Z,98870.22
2022-12-28T09:35:34.207Z,98862.03
2022-12-28T09:40:42.472Z,98864.16
2022-12-28T09:45:51.811Z,98866.81
2022-12-28T09:50:57.639Z,98853.88
2022-12-28T09:56:09.655Z,98853.88
2022-12-28T10:01:23.807Z,98853.06
2022-12-28T10:06:32.317Z,98846.69
2022-12-28T10:11:45.511Z,98830.06
2022-12-28T10:16:53.626Z,98821.31
2022-12-28T10:22:03.623Z,98813.91
2022-12-28T10:27:10.618Z,98802.25
2022-12-28T10:32:19.876Z,98807.00
2022-12-28T10:37:30.896Z,98795.19
2022-12-28T10:42:41.959Z,98781.06
2022-12-28T10:47:53.277Z,98775.44
2022-12-28T10:53:02.149Z,98759.97
2022-12-28T10:58:30.263Z,98759.53
2022-12-28T11:03:45.577Z,98764.22
2022-12-28T11:09:09.253Z,98762.09
2022-12-28T11:14:21.359Z,98744.63
2022-12-28T11:19:34.008Z,98731.41
2022-12-28T11:24:40.997Z,98735.91
2022-12-28T11:29:50.246Z,98727.56
2022-12-28T11:35:01.881Z,98728.22
2022-12-28T11:40:09.759Z,98724.78
2022-12-28T11:45:23.681Z,98722.47
2022-12-28T11:50:59.677Z,98712.28
2022-12-28T11:56:12.734Z,98703.81
2022-12-28T12:01:45.693Z,98700.34
2022-12-28T12:07:30.593Z,98704.44
2022-12-28T12:12:39.452Z,98704.00
2022-12-28T12:17:49.052Z,98700.31
2022-12-28T12:23:02.480Z,98690.88
2022-12-28T12:28:14.884Z,98689.56
2022-12-28T12:33:27.538Z,98690.41
2022-12-28T12:38:51.230Z,98695.13
2022-12-28T12:44:15.324Z,98691.56
2022-12-28T12:49:56.829Z,98683.50
2022-12-28T12:55:22.465Z,98683.97
2022-12-28T13:00:36.305Z,98684.84
2022-12-28T13:05:54.876Z,98683.47
2022-12-28T13:11:11.672Z,98664.50
2022-12-28T13:16:20.329Z,98667.09
2022-12-28T13:21:27.138Z,98667.66
2022-12-28T13:26:34.791Z,98673.72
2022-12-28T13:31:42.120Z,98672.81
2022-12-28T13:36:56.505Z,98659.59
2022-12-28T13:42:09.887Z,98654.63
2022-12-28T13:47:23.194Z,98652.94
2022-12-28T13:52:34.669Z,98641.84
2022-12-28T13:57:48.988Z,98643.16
2022-12-28T14:02:59.852Z,98658.03
2022-12-28T14:08:08.892Z,98664.63
2022-12-28T14:13:18.404Z,98664.78
2022-12-28T14:18:23.900Z,98663.97
2022-12-28T14:23:32.174Z,98661.03
2022-12-28T14:28:45.966Z,98661.00
2022-12-28T14:33:57.675Z,98657.88
2022-12-28T14:39:06.656Z,98657.00
2022-12-28T14:44:23.427Z,98649.63
2022-12-28T14:49:42.799Z,98655.81
2022-12-28T14:54:48.698Z,98650.50
2022-12-28T15:00:02.119Z,98650.25
2022-12-28T15:05:30.768Z,98636.78
2022-12-28T15:10:45.730Z,98650.25
2022-12-28T15:16:02.335Z,98642.06
2022-12-28T15:21:19.726Z,98641.59
2022-12-28T15:26:28.061Z,98639.00
2022-12-28T15:31:37.022Z,98647.22
2022-12-28T15:36:47.815Z,98632.13
2022-12-28T15:41:53.498Z,98629.75
2022-12-28T15:47:01.863Z,98635.28
2022-12-28T15:52:08.057Z,98640.41
2022-12-28T15:57:15.889Z,98633.28
2022-12-28T16:02:24.693Z,98632.97
2022-12-28T16:07:31.011Z,98625.41
2022-12-28T16:12:36.841Z,98623.16
2022-12-28T16:17:55.140Z,98629.47
2022-12-28T16:23:02.772Z,98633.09
2022-12-28T16:28:08.636Z,98626.50
2022-12-28T16:33:16.617Z,98613.69
2022-12-28T16:38:25.888Z,98621.31
2022-12-28T16:43:31.839Z,98614.78
2022-12-28T16:48:40.703Z,98615.53
2022-12-28T16:53:51.619Z,98611.16
2022-12-28T16:58:59.247Z,98609.72
2022-12-28T17:04:09.290Z,98599.22
2022-12-28T17:09:17.080Z,98607.72
2022-12-28T17:14:36.971Z,98610.38
2022-12-28T17:19:49.328Z,98603.50
2022-12-28T17:24:56.848Z,98604.28
2022-12-28T17:30:04.510Z,98600.25
2022-12-28T17:35:15.438Z,98591.00
2022-12-28T17:40:22.434Z,98580.66
2022-12-28T17:45:28.279Z,98578.97
2022-12-28T17:50:36.008Z,98586.06
2022-12-28T17:55:43.917Z,98581.28
2022-12-28T18:01:00.028Z,98581.28
2022-12-28T18:06:11.428Z,98580.69
2022-12-28T18:11:16.586Z,98570.97
2022-12-28T18:16:24.873Z,98573.28
2022-12-28T18:21:43.621Z,98560.63
2022-12-28T18:26:50.175Z,98571.53
2022-12-28T18:31:55.386Z,98568.00
2022-12-28T18:37:09.801Z,98549.63
2022-12-28T18:42:15.073Z,98558.84
2022-12-28T18:47:20.706Z,98560.47
2022-12-28T18:52:31.745Z,98551.09
2022-12-28T18:57:43.209Z,98557.41
2022-12-28T19:02:54.149Z,98562.94
2022-12-28T19:08:05.740Z,98554.63
2022-12-28T19:13:11.839Z,98544.50
2022-12-28T19:18:18.350Z,98548.16
2022-12-28T19:23:30.181Z,98547.59
2022-12-28T19:28:39.069Z,98538.06
2022-12-28T19:33:44.962Z,98529.63
2022-12-28T19:38:54.096Z,98510.06
2022-12-28T19:44:00.230Z,98499.06
2022-12-28T19:49:15.935Z,98500.78
2022-12-28T19:54:24.679Z,98488.63
2022-12-28T19:59:32.996Z,98487.97
2022-12-28T20:04:40.523Z,98486.63
2022-12-28T20:09:54.052Z,98476.44
2022-12-28T20:15:00.602Z,98467.94
2022-12-28T20:20:07.078Z,98465.16
2022-12-28T20:25:18.103Z,98455.63
2022-12-28T20:30:27.088Z,98462.41
2022-12-28T20:35:32.440Z,98449.53
2022-12-28T20:40:44.933Z,98458.59
2022-12-28T20:45:54.185Z,98449.59
2022-12-28T20:51:01.137Z,98458.34
2022-12-28T20:56:18.520Z,98454.41
2022-12-28T21:01:26.341Z,98456.19
2022-12-28T21:06:36.378Z,98449.34
2022-12-28T21:11:45.510Z,98445.41
2022-12-28T21:16:51.780Z,98436.38
2022-12-28T21:22:04.413Z,98430.16
2022-12-28T21:27:12.465Z,98414.81
2022-12-28T21:32:17.508Z,98395.41
2022-12-28T21:37:36.252Z,98386.88
2022-12-28T21:42:48.714Z,98390.25
2022-12-28T21:47:54.078Z,98377.22
2022-12-28T21:53:00.310Z,98361.81
2022-12-28T21:58:09.973Z,98352.13
2022-12-28T22:03:27.605Z,98347.34
2022-12-28T22:08:45.591Z,98335.16
2022-12-28T22:13:55.617Z,98339.22
2022-12-28T22:19:04.095Z,98327.94
2022-12-28T22:24:10.495Z,98314.50
2022-12-28T22:29:19.393Z,98306.13
2022-12-28T22:34:27.273Z,98289.84
2022-12-28T22:39:33.098Z,98277.69
2022-12-28T22:44:41.318Z,98274.19
2022-12-28T22:49:48.970Z,98280.94
2022-12-28T22:54:57.985Z,98266.53
2022-12-28T23:00:05.966Z,98268.50
2022-12-28T23:05:13.217Z,98259.88
2022-12-28T23:10:18.361Z,98247.38
2022-12-28T23:15:28.113Z,98243.25
2022-12-28T23:20:46.417Z,98244.34
2022-12-28T23:26:05.303Z,98227.38
2022-12-28T23:31:13.124Z,98209.50
2022-12-28T23:36:21.608Z,98216.56
2022-12-28T23:41:40.017Z,98206.56
2022-12-28T23:46:58.258Z,98201.38
2022-12-28T23:52:07.107Z,98188.22
2022-12-28T23:57:16.443Z,98197.75
